Rockwell, NC (28138)

11:09 EDT le 27 août 2014 (GMT -0400)
Granite Quarry | Change Station
CLOSE
Current Station
Stations météorologiques personnelles
Location: Salisbury, NC
Altitude: 771 ft
Stations météo à proximité

Alt. 771 ft 35.61 °N, 80.46 °W | Updated 8 seconds ago

Ciel dégagé
Ciel dégagé
80.4 ° F
Paraît 83 ° F
N
0.0
Vent Variable Vent de Ouest
Gusts 0.0 mph

Aujourd'hui
Haut(e) -- | Bas -- ° F
--% Risque de précip.
Hier
Haut(e) -- | Bas -- ° F
Precip. -- pouce
6:50 AM 7:55 PM
Lune montante, 4% visible
Pression 30.12 pouce
Visibilité 10.0 Miles terrestres
Nuages Ciel dégagé
indice de chaleur 83 ° F
Point de rosée 66 ° F
Humidité 63%
Précipitations 0.00 pouce
Profondeur de la couche neigeuse Non disponible.
UV 7 sur 12
Pollen 9.10 sur 12
Ozone Bon
PM2.5 Bon
Flu Activity Non disponible.
METAR KRUQ 271455Z AUTO 32004KT 10SM CLR 23/17 A3012 RMK AO2 T02330170

More Conditions Fewer Conditions

Pression 30.12 pouce
Visibilité 10.0 Miles terrestres
Nuages Ciel dégagé
indice de chaleur 83 ° F
Point de rosée 66 ° F
Humidité 63%
Précipitations 0.00 pouce
Profondeur de la couche neigeuse Non disponible.
UV 7 sur 12
Pollen 9.10 sur 12
Ozone Bon
PM2.5 Bon
Flu Activity Non disponible.
METAR KRUQ 271455Z AUTO 32004KT 10SM CLR 23/17 A3012 RMK AO2 T02330170

More Conditions Fewer Conditions

10-Day Weather Forecast

Almanac

Astronomie

Aug. 27, 2014 Lever Coucher
Temps réel 06:50 EDT 19:55 EDT
Crépuscule civil 06:23 EDT 20:21 EDT
Crépuscule nautique 05:52 EDT 20:53 EDT
Crépuscule astronomique 05:20 EDT 21:25 EDT
Lune 08:39 EDT 20:53 EDT
Durée de lumière visible 13h 58m
Longueur du jour
13h 05m
Tomorrow will be 2m 7s shorter.
Lune montante, 4% of the Moon is Illuminated
Aujourd'hui
Lune montante
Sep 2
Premier quartier
Sep 8
Pleine lune
Sep 15
Dernier quartier
Sep 24
Nouveau

Extrêmes aujourd'hui

State Highs State Lows

Community

WunderPhotos

Upload Photos

1,747,703 Photos téléchargées !

Nearby

Qualité de l'air

  Qualité de l'air Indice de la qualité de l'air Polluant
Hier Bon
OZONE
Hier Bon
PM2.5
Actuel Bon
PM2.5
Actuel Bon
OZONE
mercredi Moyen
OZONE
mercredi Bon
PM2.5
jeudi Moyen
OZONE
jeudi Moyen
PM2.5
vendredi Moyen
OZONE
vendredi Moyen
PM2.5

Épaisseur de neige

Station Depth Altitude
Pas de nouvelles chutes de neige

Activité sismique

Ville Distance Mag. Time & Date
No recent earthquake activity has been reported nearby.
Minimum magnitude displayed is 2.5.

Températures des eaux côtières

Lieu Température
Aucun rapport de station

Stations météo à proximité